Orbital elements of FENGYUN 1C DEB
| Launched | 9 May 1999 |
| Flight ended | – |
| Launch site | Taiyuan Space Center, PRC |
| Owner | People's Republic of China |
| NORAD ID | 31688 |
| Date fetched |
Epoch osculation |
Inc. [°] |
Ecc. | RA asc node [hr] |
Arg Peri. [°] |
Mean anom [°] |
Mean motion [rev/day] |
Abs. mag |
| Date fetched |
Epoch osculation |
Inc. [°] |
Ecc. | RA asc node [hr] |
Arg Peri. [°] |
Mean anom [°] |
Mean motion [rev/day] |
Abs. mag |
| 2026 May 03 17:57 | 2026 Apr 30 09:21:49 | 98.9368 | 0.00757 | 11.8030 | 116.5506 | 244.3450 | 14.02372 | – |
| 2026 May 02 17:57 | 2026 Apr 30 09:21:49 | 98.9368 | 0.00757 | 11.8030 | 116.5506 | 244.3450 | 14.02372 | – |
| 2026 May 01 17:56 | 2026 Apr 30 09:21:49 | 98.9368 | 0.00757 | 11.8030 | 116.5506 | 244.3450 | 14.02372 | – |
| 2026 Apr 30 17:56 | 2026 Apr 30 09:21:49 | 98.9368 | 0.00757 | 11.8030 | 116.5506 | 244.3450 | 14.02372 | – |
| 2026 Apr 29 17:57 | 2026 Apr 24 02:40:41 | 98.9395 | 0.00757 | 11.3924 | 133.5401 | 244.3450 | 14.02372 | – |
| 2026 Apr 28 17:56 | 2026 Apr 24 02:40:41 | 98.9395 | 0.00757 | 11.3924 | 133.5401 | 244.3450 | 14.02372 | – |
| 2026 Apr 27 17:58 | 2026 Apr 24 02:40:41 | 98.9395 | 0.00757 | 11.3924 | 133.5401 | 244.3450 | 14.02372 | – |
| 2026 Apr 26 17:58 | 2026 Apr 24 02:40:41 | 98.9395 | 0.00757 | 11.3924 | 133.5401 | 244.3450 | 14.02372 | – |
| 2026 Apr 25 17:58 | 2026 Apr 24 02:40:41 | 98.9395 | 0.00757 | 11.3924 | 133.5401 | 244.3450 | 14.02372 | – |
| 2026 Apr 24 17:59 | 2026 Apr 24 02:40:41 | 98.9395 | 0.00757 | 11.3924 | 133.5401 | 244.3450 | 14.02372 | – |
| 2026 Apr 23 17:57 | 2026 Apr 18 09:41:28 | 98.9409 | 0.00755 | 11.0189 | 149.1191 | 244.3450 | 14.02372 | – |
| 2026 Apr 22 17:57 | 2026 Apr 18 09:41:28 | 98.9409 | 0.00755 | 11.0189 | 149.1191 | 244.3450 | 14.02372 | – |
| 2026 Apr 21 17:57 | 2026 Apr 18 09:41:28 | 98.9409 | 0.00755 | 11.0189 | 149.1191 | 244.3450 | 14.02372 | – |
| 2026 Apr 20 17:57 | 2026 Apr 18 09:41:28 | 98.9409 | 0.00755 | 11.0189 | 149.1191 | 244.3450 | 14.02372 | – |
| 2026 Apr 19 17:58 | 2026 Apr 18 09:41:28 | 98.9409 | 0.00755 | 11.0189 | 149.1191 | 244.3450 | 14.02372 | – |
| 2026 Apr 18 17:56 | 2026 Apr 12 14:59:30 | 98.9423 | 0.00751 | 10.6407 | 165.0456 | 244.3450 | 14.02372 | – |
| 2026 Apr 16 17:57 | 2026 Apr 12 14:59:30 | 98.9423 | 0.00751 | 10.6407 | 165.0456 | 244.3450 | 14.02372 | – |
| 2026 Apr 14 17:57 | 2026 Apr 12 14:59:30 | 98.9423 | 0.00751 | 10.6407 | 165.0456 | 244.3450 | 14.02372 | – |
| 2026 Apr 13 17:57 | 2026 Apr 12 14:59:30 | 98.9423 | 0.00751 | 10.6407 | 165.0456 | 244.3450 | 14.02372 | – |
| 2026 Apr 12 17:57 | 2026 Apr 07 21:58:39 | 98.9438 | 0.00749 | 10.3326 | 178.1472 | 244.3450 | 14.02372 | – |
| 2026 Apr 11 17:57 | 2026 Apr 07 21:58:39 | 98.9438 | 0.00749 | 10.3326 | 178.1472 | 244.3450 | 14.02372 | – |
| 2026 Apr 10 17:58 | 2026 Apr 07 21:58:39 | 98.9438 | 0.00749 | 10.3326 | 178.1472 | 244.3450 | 14.02372 | – |
| 2026 Apr 09 18:01 | 2026 Apr 07 21:58:39 | 98.9438 | 0.00749 | 10.3326 | 178.1472 | 244.3450 | 14.02372 | – |
| 2026 Apr 08 17:57 | 2026 Apr 07 21:58:39 | 98.9438 | 0.00749 | 10.3326 | 178.1472 | 244.3450 | 14.02372 | – |
| 2026 Apr 07 17:57 | 2026 Apr 01 10:09:18 | 98.9455 | 0.00747 | 9.9076 | 196.3573 | 244.3450 | 14.02372 | – |
| 2026 Apr 06 17:57 | 2026 Apr 01 10:09:18 | 98.9455 | 0.00747 | 9.9076 | 196.3573 | 244.3450 | 14.02372 | – |